Terminal Aerodrome Forecast
Issued by NWS

Home | Current Version | Previous Version | Text Only | Print | Product List | Glossary On
Versions: 1 2 3 4 5 6 7 8 9 10 11 12 13 14 15 16 17 18 19 20 21 22 23 24 25 26 27 28 29 30 31 32
000
FTUS41 KBOX 280810 AAA
TAFACK
TAF AMD
KACK 280810Z 2808/2906 18007KT 1/2SM FG OVC002
     FM281100 18008KT 1SM -SHRA BR VCTS OVC003CB
     FM281300 18015KT 3SM -SHRA BR OVC005
     FM281700 19017KT 5SM BR BKN008
     FM282100 21018KT 2SM BR SCT008
     FM290000 21019KT 1/4SM FG BKN004=

USA.gov is the U.S. government's official web portal to all federal, state and local government web resources and services.